Terminal Aerodrome Forecast
Issued by NWS

Home | Current Version | Previous Version | Text Only | Print | Product List | Glossary On
Versions: 1 2 3 4 5 6 7 8 9 10 11 12 13 14
000
FTUS45 KPIH 302300
TAFSUN
TAF
KSUN 302321Z 3100/3124 19011G20KT P6SM SCT080 BKN150
     FM310400 31007KT P6SM VCSH SCT050 BKN100
     FM311000 31006KT P6SM BKN100
     FM311700 13010KT P6SM SCT050
      AMD LTD TO CLD VIS AND WIND 3105/3113=

USA.gov is the U.S. government's official web portal to all federal, state and local government web resources and services.